Time;durP1;ratioP1;P1;durP2;ratioP2;P2;SDS_P1;SDS_P2;PMS_P1;PMS_P2;Temp;Humidity;BMP_temperature;BMP_pressure;BME280_temperature;BME280_humidity;BME280_pressure;Samples;Min_cycle;Max_cycle;Signal;HPM_P1;HPM_P2
2023/03/13 00:01:00;;;;;;;31.03;6.13;;;8.30;99.90;;;;;;5094068;28;20278;-76
2023/03/13 00:03:27;;;;;;;36.57;6.50;;;8.20;99.90;;;;;;5093908;28;20329;-76
2023/03/13 00:06:01;;;;;;;38.43;7.43;;;8.20;99.90;;;;;;5093999;28;20317;-76
2023/03/13 00:08:30;;;;;;;29.95;6.80;;;8.20;99.90;;;;;;5094830;28;20372;-76
2023/03/13 00:10:56;;;;;;;37.03;7.23;;;8.30;99.90;;;;;;5092889;28;20091;-76
2023/03/13 00:13:22;;;;;;;34.30;6.00;;;8.30;99.90;;;;;;5093141;28;20295;-76
2023/03/13 00:15:47;;;;;;;36.73;6.40;;;8.20;99.90;;;;;;5094304;28;20323;-76
2023/03/13 00:18:13;;;;;;;38.80;7.53;;;8.20;99.90;;;;;;5093385;28;20066;-77
2023/03/13 00:20:39;;;;;;;36.13;7.50;;;8.20;99.90;;;;;;5094039;28;20088;-76
2023/03/13 00:23:05;;;;;;;40.77;7.93;;;8.20;99.90;;;;;;5075711;28;20135;-76
2023/03/13 00:25:30;;;;;;;41.40;8.57;;;8.20;99.90;;;;;;5094234;28;20366;-77
2023/03/13 00:27:56;;;;;;;35.53;6.77;;;8.20;99.90;;;;;;5093690;28;20056;-77
2023/03/13 00:30:22;;;;;;;38.23;7.43;;;8.20;99.90;;;;;;5093728;28;20044;-77
2023/03/13 00:32:48;;;;;;;33.93;6.83;;;8.20;99.90;;;;;;5093689;28;20040;-77
2023/03/13 00:35:14;;;;;;;39.90;7.47;;;8.20;99.90;;;;;;5093688;28;20190;-77
2023/03/13 00:37:41;;;;;;;37.10;7.37;;;8.20;99.90;;;;;;5093593;28;20400;-77
2023/03/13 00:40:08;;;;;;;34.97;6.97;;;8.20;99.90;;;;;;5093518;28;20618;-77
2023/03/13 00:42:34;;;;;;;38.47;8.70;;;8.20;99.90;;;;;;5091448;28;20336;-77
2023/03/13 00:45:00;;;;;;;45.67;8.23;;;8.20;99.90;;;;;;5093516;28;20680;-77
2023/03/13 00:47:26;;;;;;;41.87;8.70;;;8.20;99.90;;;;;;5092418;28;20286;-77
2023/03/13 00:49:51;;;;;;;35.57;7.43;;;8.20;99.90;;;;;;5093985;28;20044;-77
2023/03/13 00:52:17;;;;;;;46.77;9.20;;;8.20;99.90;;;;;;5093376;28;20040;-76
2023/03/13 00:54:43;;;;;;;40.57;7.63;;;8.20;99.90;;;;;;5093656;28;20108;-76
2023/03/13 00:57:09;;;;;;;36.77;7.17;;;8.20;99.90;;;;;;5092178;28;20170;-76
2023/03/13 00:59:34;;;;;;;38.77;8.40;;;8.20;99.90;;;;;;5093897;28;20044;-76
2023/03/13 01:02:00;;;;;;;42.13;9.10;;;8.20;99.90;;;;;;5093235;28;20044;-77
2023/03/13 01:04:26;;;;;;;51.53;8.17;;;8.20;99.90;;;;;;5093329;28;20130;-76
2023/03/13 01:06:51;;;;;;;28.47;6.97;;;8.20;99.90;;;;;;5093299;28;20051;-76
2023/03/13 01:09:18;;;;;;;38.33;7.93;;;8.20;99.90;;;;;;5093291;28;20048;-76
2023/03/13 01:11:45;;;;;;;39.33;8.27;;;8.20;99.90;;;;;;5093256;28;20055;-76
2023/03/13 01:14:16;;;;;;;45.97;7.73;;;8.20;99.90;;;;;;5093225;28;20274;-76
2023/03/13 01:16:42;;;;;;;38.50;7.97;;;8.20;99.90;;;;;;5093248;28;20348;-76
2023/03/13 01:19:11;;;;;;;37.07;7.20;;;8.20;99.90;;;;;;5093242;28;20460;-76
2023/03/13 01:21:37;;;;;;;41.50;8.20;;;8.20;99.90;;;;;;5093828;28;20298;-77
2023/03/13 01:24:03;;;;;;;41.00;7.53;;;8.20;99.90;;;;;;5093170;28;20279;-77
2023/03/13 01:26:29;;;;;;;39.57;7.90;;;8.30;99.90;;;;;;5093610;28;20270;-77
2023/03/13 01:28:55;;;;;;;44.40;8.53;;;8.30;99.90;;;;;;5092999;28;20278;-77
2023/03/13 01:31:27;;;;;;;40.90;8.03;;;8.30;99.90;;;;;;5095869;28;20070;-77
2023/03/13 01:33:56;;;;;;;33.30;7.83;;;8.30;99.90;;;;;;5096727;28;20106;-77
2023/03/13 01:36:22;;;;;;;36.27;7.37;;;8.30;99.90;;;;;;5097323;28;20320;-77
2023/03/13 01:38:50;;;;;;;35.60;7.73;;;8.30;99.90;;;;;;5096625;28;20286;-77
2023/03/13 01:41:16;;;;;;;35.57;7.33;;;8.30;99.90;;;;;;5096616;28;20331;-76
2023/03/13 01:43:44;;;;;;;38.73;6.93;;;8.30;99.90;;;;;;5095892;28;20294;-76
2023/03/13 01:46:17;;;;;;;43.10;8.73;;;8.40;99.90;;;;;;5097248;28;20380;-76
2023/03/13 01:49:02;;;;;;;43.23;8.27;;;8.30;99.90;;;;;;5096536;28;20282;-76
2023/03/13 01:51:40;;;;;;;35.57;7.50;;;8.30;99.90;;;;;;5096751;28;20282;-75
2023/03/13 01:54:28;;;;;;;43.47;8.57;;;8.40;99.90;;;;;;5096298;28;20274;-75
2023/03/13 01:56:57;;;;;;;33.80;7.27;;;8.40;99.90;;;;;;5096197;28;20297;-75
2023/03/13 01:59:28;;;;;;;40.13;7.77;;;8.40;99.90;;;;;;5096833;28;20282;-74
2023/03/13 02:01:58;;;;;;;37.63;8.20;;;8.40;99.90;;;;;;5096226;28;20290;-73
2023/03/13 02:04:37;;;;;;;39.80;8.50;;;8.40;99.90;;;;;;5096777;28;20329;-74
2023/03/13 02:07:08;;;;;;;35.97;8.10;;;8.40;99.90;;;;;;5096799;28;20274;-74
2023/03/13 02:09:34;;;;;;;33.63;8.27;;;8.40;99.90;;;;;;5096983;28;20277;-74
2023/03/13 02:12:07;;;;;;;40.83;10.17;;;8.40;99.90;;;;;;5094909;28;20274;-73
2023/03/13 02:14:36;;;;;;;40.50;8.33;;;8.40;99.90;;;;;;5096428;28;20282;-73
2023/03/13 02:17:03;;;;;;;35.60;8.37;;;8.40;99.90;;;;;;5096022;28;20776;-73
2023/03/13 02:19:35;;;;;;;37.10;8.47;;;8.40;99.90;;;;;;5095951;28;20365;-73
2023/03/13 02:22:27;;;;;;;31.63;8.70;;;8.50;99.90;;;;;;5095817;28;20298;-73
2023/03/13 02:25:19;;;;;;;27.93;7.47;;;8.40;99.90;;;;;;5095818;28;20282;-73
2023/03/13 02:27:46;;;;;;;29.97;7.77;;;8.50;99.90;;;;;;5064171;28;20330;-73
2023/03/13 02:30:13;;;;;;;37.47;8.63;;;8.50;99.90;;;;;;5095724;28;20270;-73
2023/03/13 02:32:39;;;;;;;27.57;8.13;;;8.50;99.90;;;;;;5096504;28;20317;-73
2023/03/13 02:35:08;;;;;;;23.60;7.10;;;8.50;99.90;;;;;;5095610;28;20278;-73
2023/03/13 02:37:35;;;;;;;23.37;7.10;;;8.50;99.90;;;;;;5095583;28;20282;-74
2023/03/13 02:40:08;;;;;;;27.23;7.90;;;8.60;99.90;;;;;;5095799;28;20358;-74
2023/03/13 02:42:36;;;;;;;22.97;6.90;;;8.60;99.90;;;;;;5094096;28;20306;-74
2023/03/13 02:45:02;;;;;;;26.60;8.17;;;8.60;99.90;;;;;;5095513;28;20282;-74
2023/03/13 02:47:28;;;;;;;21.97;7.83;;;8.60;99.90;;;;;;5094284;28;20781;-75
2023/03/13 02:49:54;;;;;;;21.87;7.10;;;8.60;99.90;;;;;;5095346;28;20055;-75
2023/03/13 02:52:27;;;;;;;21.90;7.30;;;8.60;99.90;;;;;;5095577;28;20040;-75
2023/03/13 02:55:03;;;;;;;17.13;7.33;;;8.70;99.90;;;;;;5094158;28;20056;-75
2023/03/13 02:57:30;;;;;;;20.83;7.07;;;8.60;99.90;;;;;;5095772;28;20614;-74
2023/03/13 02:59:56;;;;;;;21.27;7.33;;;8.70;99.90;;;;;;5095173;28;20296;-74
2023/03/13 03:02:22;;;;;;;24.23;6.63;;;8.70;99.90;;;;;;5095046;28;20300;-75
2023/03/13 03:04:48;;;;;;;15.27;6.10;;;8.70;99.90;;;;;;5095079;28;20641;-74
2023/03/13 03:07:13;;;;;;;17.73;7.33;;;8.70;99.90;;;;;;5095267;28;20080;-75
2023/03/13 03:09:39;;;;;;;18.47;6.73;;;8.70;99.90;;;;;;5095041;28;20083;-75
2023/03/13 03:12:05;;;;;;;17.60;7.37;;;8.70;99.90;;;;;;5094887;28;20123;-75
2023/03/13 03:14:31;;;;;;;19.63;6.97;;;8.80;99.90;;;;;;5094936;28;20056;-75
2023/03/13 03:16:57;;;;;;;17.00;7.57;;;8.80;99.90;;;;;;5095131;28;20298;-75
2023/03/13 03:19:22;;;;;;;16.73;6.77;;;8.80;99.90;;;;;;5094814;28;20044;-75
2023/03/13 03:21:48;;;;;;;14.97;7.40;;;8.80;99.90;;;;;;5093217;28;20127;-75
2023/03/13 03:24:14;;;;;;;14.50;7.60;;;8.80;99.90;;;;;;5095448;28;20059;-75
2023/03/13 03:26:40;;;;;;;13.27;7.57;;;8.80;99.90;;;;;;5094640;28;20048;-74
2023/03/13 03:29:07;;;;;;;16.70;7.77;;;8.80;99.90;;;;;;5094650;28;20330;-75
2023/03/13 03:31:33;;;;;;;15.53;7.60;;;8.80;99.90;;;;;;5095415;28;20119;-75
2023/03/13 03:33:59;;;;;;;16.53;7.47;;;8.80;99.90;;;;;;5094821;28;20274;-75
2023/03/13 03:36:25;;;;;;;16.33;7.87;;;8.90;99.90;;;;;;5094490;28;20300;-74
2023/03/13 03:38:51;;;;;;;13.87;7.67;;;8.90;99.90;;;;;;5094998;28;20360;-74
2023/03/13 03:41:18;;;;;;;10.73;6.97;;;8.90;99.90;;;;;;5094312;28;20048;-75
2023/03/13 03:43:44;;;;;;;17.80;7.90;;;9.00;99.90;;;;;;5093443;28;20282;-74
2023/03/13 03:46:10;;;;;;;11.67;7.87;;;9.00;99.90;;;;;;5094271;28;20274;-75
2023/03/13 03:48:36;;;;;;;16.20;7.87;;;9.00;99.90;;;;;;5094235;28;20282;-74
2023/03/13 03:51:02;;;;;;;14.37;8.30;;;9.00;99.90;;;;;;5094838;28;20051;-75
2023/03/13 03:53:28;;;;;;;14.07;7.53;;;9.00;99.90;;;;;;5094127;28;20286;-75
2023/03/13 03:55:54;;;;;;;13.53;8.10;;;9.10;99.90;;;;;;5094514;28;20627;-74
2023/03/13 03:58:20;;;;;;;14.67;8.83;;;9.10;99.90;;;;;;5094099;28;20054;-76
2023/03/13 04:00:46;;;;;;;14.53;8.77;;;9.10;99.90;;;;;;5094165;28;20290;-75
2023/03/13 04:03:13;;;;;;;15.33;8.63;;;9.20;99.90;;;;;;5094487;28;20051;-74
2023/03/13 04:05:39;;;;;;;16.33;9.73;;;9.20;99.90;;;;;;5093971;28;20282;-74
2023/03/13 04:08:05;;;;;;;17.97;10.70;;;9.20;99.90;;;;;;5094491;28;20278;-74
2023/03/13 04:10:31;;;;;;;19.17;11.83;;;9.40;99.90;;;;;;5094574;28;20102;-75
2023/03/13 04:12:57;;;;;;;24.37;13.67;;;9.40;99.90;;;;;;5093917;28;20730;-75
2023/03/13 04:15:23;;;;;;;21.10;13.30;;;9.50;99.90;;;;;;5093848;28;20546;-75
2023/03/13 04:17:49;;;;;;;23.87;14.83;;;9.50;99.90;;;;;;5093938;28;20052;-75
2023/03/13 04:20:15;;;;;;;23.80;15.60;;;9.60;99.90;;;;;;5093764;28;20352;-75
2023/03/13 04:22:41;;;;;;;28.07;15.87;;;9.60;99.90;;;;;;5093701;28;20043;-75
2023/03/13 04:25:08;;;;;;;28.13;16.57;;;9.70;99.90;;;;;;5093660;28;20044;-75
2023/03/13 04:27:34;;;;;;;22.40;14.93;;;9.70;99.90;;;;;;5093918;28;20290;-75
2023/03/13 04:29:59;;;;;;;28.37;15.47;;;9.70;99.90;;;;;;5093920;28;20332;-75
2023/03/13 04:32:25;;;;;;;25.93;14.83;;;9.70;99.90;;;;;;5093606;28;20774;-75
2023/03/13 04:34:51;;;;;;;30.33;15.47;;;9.80;99.90;;;;;;5093630;28;20062;-75
2023/03/13 04:37:16;;;;;;;27.63;16.33;;;9.90;99.90;;;;;;5093547;28;20472;-75
2023/03/13 04:39:42;;;;;;;25.23;13.60;;;9.90;99.90;;;;;;5093641;28;20438;-75
2023/03/13 04:42:11;;;;;;;22.07;13.17;;;9.90;99.90;;;;;;5093702;28;20506;-75
2023/03/13 04:44:37;;;;;;;28.30;13.47;;;10.00;99.90;;;;;;5093510;28;20044;-76
2023/03/13 04:47:03;;;;;;;27.07;13.57;;;10.00;99.90;;;;;;5092539;28;20282;-75
2023/03/13 04:49:29;;;;;;;31.17;14.33;;;10.00;99.90;;;;;;5093496;28;20498;-75
2023/03/13 04:51:55;;;;;;;25.23;12.67;;;10.00;99.90;;;;;;5093439;28;20277;-76
2023/03/13 04:54:21;;;;;;;26.80;12.23;;;10.00;99.90;;;;;;5093281;28;20446;-75
2023/03/13 04:56:47;;;;;;;25.33;11.73;;;10.00;99.90;;;;;;5091549;28;20778;-76
2023/03/13 04:59:14;;;;;;;23.70;10.87;;;10.10;99.90;;;;;;5093626;28;20274;-76
2023/03/13 05:01:41;;;;;;;18.00;10.13;;;10.10;99.90;;;;;;5092047;28;20302;-76
2023/03/13 05:04:07;;;;;;;25.83;11.27;;;10.10;99.90;;;;;;5093328;28;20289;-76
2023/03/13 05:06:33;;;;;;;27.30;10.90;;;10.10;99.90;;;;;;5096951;28;20286;-75
2023/03/13 05:08:58;;;;;;;21.43;9.03;;;10.10;99.90;;;;;;5097634;28;20742;-75
2023/03/13 05:11:25;;;;;;;21.67;9.03;;;10.10;99.90;;;;;;5097167;28;20446;-75
2023/03/13 05:13:50;;;;;;;22.20;9.27;;;10.10;99.90;;;;;;5097259;28;20044;-75
2023/03/13 05:16:16;;;;;;;17.37;7.77;;;10.10;99.90;;;;;;5097159;28;20289;-75
2023/03/13 05:18:42;;;;;;;17.77;7.40;;;10.10;99.90;;;;;;5097147;28;20093;-75
2023/03/13 05:21:08;;;;;;;21.60;7.83;;;10.20;99.90;;;;;;5096134;28;20052;-76
2023/03/13 05:23:34;;;;;;;20.30;6.93;;;10.20;99.90;;;;;;5096659;28;20044;-76
2023/03/13 05:26:00;;;;;;;16.20;7.43;;;10.30;99.90;;;;;;5096730;28;20371;-76
2023/03/13 05:28:26;;;;;;;19.23;6.73;;;10.40;99.90;;;;;;5096987;28;20408;-75
2023/03/13 05:30:52;;;;;;;16.37;5.93;;;10.40;99.90;;;;;;5096919;28;20282;-75
2023/03/13 05:33:18;;;;;;;22.47;6.00;;;10.50;99.90;;;;;;5096863;28;20044;-75
2023/03/13 05:35:45;;;;;;;20.33;6.60;;;10.60;99.90;;;;;;5096876;28;20056;-75
2023/03/13 05:38:11;;;;;;;14.47;6.00;;;10.70;99.90;;;;;;5097522;28;20331;-75
2023/03/13 05:40:37;;;;;;;24.53;7.33;;;10.70;99.90;;;;;;5096723;28;20278;-75
2023/03/13 05:43:03;;;;;;;19.80;6.63;;;10.70;99.90;;;;;;5096119;28;20375;-75
2023/03/13 05:45:28;;;;;;;24.60;7.17;;;10.80;99.90;;;;;;5096558;28;20051;-75
2023/03/13 05:47:54;;;;;;;18.53;6.10;;;10.80;99.90;;;;;;5097368;28;20278;-76
2023/03/13 05:50:21;;;;;;;18.43;6.07;;;10.80;99.90;;;;;;5096536;28;20598;-76
2023/03/13 05:52:46;;;;;;;21.33;6.57;;;10.80;99.90;;;;;;5095336;28;20130;-76
2023/03/13 05:55:12;;;;;;;22.27;6.77;;;10.80;99.90;;;;;;5096198;28;20379;-75
2023/03/13 05:57:38;;;;;;;22.37;7.50;;;10.80;99.90;;;;;;5096396;28;20051;-75
2023/03/13 06:00:05;;;;;;;18.93;7.00;;;10.80;99.90;;;;;;5096219;28;20052;-75
2023/03/13 06:02:30;;;;;;;24.33;6.67;;;10.80;99.90;;;;;;5096267;28;20380;-75
2023/03/13 06:04:56;;;;;;;23.77;6.60;;;10.80;99.90;;;;;;5096252;28;20289;-76
2023/03/13 06:07:22;;;;;;;27.77;6.27;;;10.80;99.90;;;;;;5078524;28;20047;-76
2023/03/13 06:09:47;;;;;;;20.63;6.70;;;10.80;99.90;;;;;;5096132;28;20048;-76
2023/03/13 06:12:13;;;;;;;21.10;5.97;;;10.90;99.90;;;;;;5095181;28;20091;-76
2023/03/13 06:14:39;;;;;;;17.67;6.10;;;10.90;99.90;;;;;;5095792;28;20126;-76
2023/03/13 06:17:05;;;;;;;18.23;5.60;;;10.90;99.90;;;;;;5094847;28;20048;-76
2023/03/13 06:19:31;;;;;;;19.87;5.90;;;10.80;99.90;;;;;;5095956;28;20080;-76
2023/03/13 06:21:57;;;;;;;18.73;5.17;;;10.80;99.90;;;;;;5095614;28;20758;-76
2023/03/13 06:24:22;;;;;;;19.13;5.63;;;10.70;99.90;;;;;;5095879;28;20274;-76
2023/03/13 06:26:49;;;;;;;26.10;6.10;;;10.70;99.90;;;;;;5095846;28;20048;-75
2023/03/13 06:29:15;;;;;;;17.57;4.53;;;10.70;99.90;;;;;;5095813;28;20135;-75
2023/03/13 06:31:41;;;;;;;18.37;5.93;;;10.60;99.90;;;;;;5095750;28;20278;-76
2023/03/13 06:34:11;;;;;;;19.37;5.80;;;10.60;99.90;;;;;;5095422;28;20282;-76
2023/03/13 06:36:37;;;;;;;19.40;5.10;;;10.60;99.90;;;;;;5095915;28;20139;-76
2023/03/13 06:39:03;;;;;;;20.50;6.93;;;10.60;99.90;;;;;;5095491;28;20365;-74
2023/03/13 06:41:28;;;;;;;18.17;5.67;;;10.60;99.90;;;;;;5094861;28;20126;-74
2023/03/13 06:43:54;;;;;;;15.87;5.33;;;10.60;99.90;;;;;;5095553;28;20044;-73
2023/03/13 06:46:22;;;;;;;24.30;6.03;;;10.60;99.90;;;;;;5095499;28;20048;-72
2023/03/13 06:48:48;;;;;;;19.10;5.17;;;10.60;99.90;;;;;;5095416;28;20044;-73
2023/03/13 06:51:16;;;;;;;19.10;5.87;;;10.70;99.90;;;;;;5095424;28;20274;-72
2023/03/13 06:53:42;;;;;;;16.50;4.73;;;10.60;99.90;;;;;;5096124;28;20266;-74
2023/03/13 06:56:09;;;;;;;17.80;5.00;;;10.70;99.90;;;;;;5095682;28;20668;-74
2023/03/13 06:58:35;;;;;;;19.20;4.87;;;10.70;99.90;;;;;;5095526;28;20333;-76
2023/03/13 07:01:09;;;;;;;22.90;5.50;;;10.60;99.90;;;;;;5095251;28;20289;-82
2023/03/13 07:03:36;;;;;;;20.73;5.23;;;10.60;99.90;;;;;;5095264;28;20297;-73
2023/03/13 07:06:04;;;;;;;18.73;5.33;;;10.60;99.90;;;;;;5095126;28;20758;-73
2023/03/13 07:08:30;;;;;;;25.43;6.20;;;10.60;99.90;;;;;;5095026;28;20289;-73
2023/03/13 07:11:02;;;;;;;23.20;4.97;;;10.60;99.90;;;;;;5093818;28;20668;-73
2023/03/13 07:13:31;;;;;;;16.87;4.73;;;10.70;99.90;;;;;;5094944;28;20634;-74
2023/03/13 07:16:04;;;;;;;20.37;5.60;;;10.70;99.90;;;;;;5094589;28;20785;-73
2023/03/13 07:18:31;;;;;;;17.57;5.23;;;10.60;99.90;;;;;;5095430;28;20611;-74
2023/03/13 07:20:58;;;;;;;20.80;5.00;;;10.70;99.90;;;;;;5094771;28;20289;-73
2023/03/13 07:23:25;;;;;;;21.30;5.57;;;10.70;99.90;;;;;;5094717;28;20309;-73
2023/03/13 07:25:56;;;;;;;17.67;5.67;;;10.70;99.90;;;;;;5094694;28;20354;-73
2023/03/13 07:28:22;;;;;;;21.97;5.40;;;10.60;99.90;;;;;;5094106;28;20375;-73
2023/03/13 07:30:48;;;;;;;13.47;4.70;;;10.70;99.90;;;;;;5094335;28;20671;-74
2023/03/13 07:33:15;;;;;;;16.27;4.47;;;10.70;99.90;;;;;;5094620;28;20289;-73
2023/03/13 07:35:47;;;;;;;15.57;4.27;;;10.70;99.90;;;;;;5094539;28;20047;-74
2023/03/13 07:38:12;;;;;;;15.07;4.47;;;10.60;99.90;;;;;;5094542;28;20280;-73
2023/03/13 07:40:38;;;;;;;15.07;4.60;;;10.70;99.90;;;;;;5094472;28;20395;-73
2023/03/13 07:43:04;;;;;;;14.77;4.57;;;10.60;99.90;;;;;;5094414;28;20040;-74
2023/03/13 07:45:30;;;;;;;13.33;4.60;;;10.60;99.90;;;;;;5094348;28;20040;-74
2023/03/13 07:47:55;;;;;;;13.97;4.77;;;10.70;99.90;;;;;;5094673;28;20048;-73
2023/03/13 07:50:21;;;;;;;15.97;4.40;;;10.60;99.90;;;;;;5094354;28;20452;-74
2023/03/13 07:52:47;;;;;;;17.67;5.17;;;10.60;99.90;;;;;;5094260;28;20067;-74
2023/03/13 07:55:12;;;;;;;16.50;4.27;;;10.60;99.90;;;;;;5093996;28;20127;-73
2023/03/13 07:57:38;;;;;;;17.03;5.00;;;10.60;99.90;;;;;;5094454;28;20048;-74
2023/03/13 08:00:08;;;;;;;16.03;4.30;;;10.60;99.90;;;;;;5094097;28;20055;-74
2023/03/13 08:02:34;;;;;;;11.57;3.90;;;10.70;99.90;;;;;;5094420;28;20127;-74
2023/03/13 08:05:00;;;;;;;10.83;4.00;;;10.70;99.90;;;;;;5094570;28;20306;-74
2023/03/13 08:07:25;;;;;;;11.27;3.67;;;10.80;99.90;;;;;;5094859;28;20056;-74
2023/03/13 08:09:51;;;;;;;12.07;3.57;;;10.80;99.90;;;;;;5093701;28;20047;-74
2023/03/13 08:12:17;;;;;;;10.60;4.00;;;10.90;99.90;;;;;;5093794;28;20054;-73
2023/03/13 08:14:42;;;;;;;9.83;3.47;;;10.90;99.90;;;;;;5093985;28;20507;-74
2023/03/13 08:17:08;;;;;;;11.83;3.70;;;11.00;99.90;;;;;;5093591;28;20044;-73
2023/03/13 08:19:34;;;;;;;14.97;3.93;;;11.10;99.90;;;;;;5093851;28;20051;-74
2023/03/13 08:21:59;;;;;;;11.90;3.67;;;11.20;99.90;;;;;;5093397;28;20047;-73
2023/03/13 08:24:25;;;;;;;12.67;3.80;;;11.30;99.90;;;;;;5093823;28;20040;-74
2023/03/13 08:26:51;;;;;;;13.83;4.00;;;11.30;99.90;;;;;;5092730;28;20519;-73
2023/03/13 08:29:16;;;;;;;16.03;4.03;;;11.40;99.90;;;;;;5093323;28;20071;-74
2023/03/13 08:31:46;;;;;;;12.40;3.50;;;11.50;99.90;;;;;;5093633;28;20055;-74
2023/03/13 08:34:13;;;;;;;13.50;3.90;;;11.50;99.90;;;;;;5093295;28;20500;-73
2023/03/13 08:36:39;;;;;;;11.13;3.27;;;11.60;99.90;;;;;;5094111;28;20319;-74
2023/03/13 08:39:15;;;;;;;12.17;3.90;;;11.60;99.90;;;;;;5093281;28;20281;-73
2023/03/13 08:41:40;;;;;;;;;;;11.60;99.90;;;;;;5093282;28;20774;-74
2023/03/13 08:44:10;;;;;;;14.03;3.57;;;11.70;99.90;;;;;;5092704;28;20041;-74
2023/03/13 08:46:36;;;;;;;10.07;2.67;;;11.70;99.90;;;;;;5093554;28;20122;-74
2023/03/13 08:49:03;;;;;;;7.87;2.17;;;11.70;99.90;;;;;;5093178;28;20774;-74
2023/03/13 08:51:28;;;;;;;13.00;3.10;;;11.80;99.90;;;;;;5093536;28;20274;-74
2023/03/13 08:53:55;;;;;;;9.23;2.77;;;11.80;99.90;;;;;;5092431;28;20380;-74
2023/03/13 08:56:23;;;;;;;8.07;2.60;;;11.90;99.90;;;;;;5093520;28;20471;-73
2023/03/13 08:58:50;;;;;;;8.00;2.50;;;11.90;99.90;;;;;;5093457;28;20289;-73
2023/03/13 09:01:16;;;;;;;12.63;2.87;;;12.00;99.90;;;;;;5093521;28;20792;-73
2023/03/13 09:03:42;;;;;;;13.87;3.70;;;11.90;99.90;;;;;;5093228;28;20778;-75
2023/03/13 09:06:09;;;;;;;10.27;2.90;;;11.90;99.90;;;;;;5093429;28;20293;-74
2023/03/13 09:08:36;;;;;;;10.97;2.80;;;11.80;99.90;;;;;;5093415;28;20047;-74
2023/03/13 09:11:04;;;;;;;10.67;3.40;;;11.80;99.90;;;;;;5093439;28;20301;-74
2023/03/13 09:13:32;;;;;;;13.50;3.60;;;11.80;99.90;;;;;;5093091;28;20611;-74
2023/03/13 09:16:11;;;;;;;13.30;2.87;;;11.90;99.90;;;;;;5093358;28;20279;-74
2023/03/13 09:18:37;;;;;;;17.30;3.87;;;11.90;99.90;;;;;;5093372;28;20278;-74
2023/03/13 09:21:09;;;;;;;15.03;4.03;;;11.90;99.90;;;;;;5094144;28;20286;-74
2023/03/13 09:23:35;;;;;;;14.40;3.30;;;11.90;99.90;;;;;;5093280;28;20435;-74
2023/03/13 09:26:01;;;;;;;15.80;3.87;;;11.80;99.90;;;;;;5093257;28;20697;-74
2023/03/13 09:28:27;;;;;;;16.40;4.37;;;11.80;99.90;;;;;;5076285;28;20294;-74
2023/03/13 09:30:53;;;;;;;19.17;4.27;;;11.70;99.90;;;;;;5093209;28;20093;-74
2023/03/13 09:33:22;;;;;;;19.00;4.83;;;11.70;99.90;;;;;;5093504;28;20275;-74
2023/03/13 09:35:51;;;;;;;16.07;3.37;;;11.70;99.90;;;;;;5093220;28;20308;-75
2023/03/13 09:38:19;;;;;;;16.07;4.80;;;11.80;99.90;;;;;;5093167;28;20339;-74
2023/03/13 09:40:47;;;;;;;14.20;3.53;;;11.90;99.90;;;;;;5093120;28;20392;-75
2023/03/13 09:43:31;;;;;;;14.77;4.07;;;12.00;99.90;;;;;;5093030;28;20294;-74
2023/03/13 09:46:01;;;;;;;14.10;3.40;;;12.00;99.90;;;;;;5093465;28;20614;-74
2023/03/13 09:48:39;;;;;;;15.03;3.30;;;12.10;99.90;;;;;;5093035;28;20353;-74
2023/03/13 09:51:10;;;;;;;21.17;4.23;;;12.10;99.90;;;;;;5094406;28;20278;-74
2023/03/13 09:53:45;;;;;;;15.30;3.57;;;12.20;99.90;;;;;;5096496;28;20290;-74
2023/03/13 09:56:22;;;;;;;17.13;4.22;;;12.20;99.90;;;;;;5096775;28;20290;-74
2023/03/13 09:59:12;;;;;;;17.83;3.63;;;12.20;99.90;;;;;;5096814;28;20109;-75
2023/03/13 10:01:40;;;;;;;16.63;4.17;;;12.20;99.90;;;;;;5096973;28;20306;-74
2023/03/13 10:04:34;;;;;;;15.27;4.10;;;12.20;99.90;;;;;;5096367;28;20288;-74
2023/03/13 10:07:01;;;;;;;17.23;4.53;;;12.30;99.90;;;;;;5096333;28;20278;-75
2023/03/13 10:09:32;;;;;;;19.07;4.70;;;12.30;99.90;;;;;;5097099;28;20270;-74
2023/03/13 10:12:14;;;;;;;18.20;4.90;;;12.30;99.90;;;;;;5096187;28;20274;-75
2023/03/13 10:15:02;;;;;;;21.13;4.87;;;12.40;99.90;;;;;;5096995;28;20289;-74
2023/03/13 10:17:38;;;;;;;25.30;5.97;;;12.50;99.90;;;;;;5097220;28;20331;-74
2023/03/13 10:20:34;;;;;;;16.70;4.30;;;12.50;99.90;;;;;;5096883;28;20306;-75
2023/03/13 10:23:15;;;;;;;20.58;4.15;;;12.60;99.90;;;;;;5094738;28;20302;-74
2023/03/13 10:25:41;;;;;;;19.67;4.30;;;12.60;99.90;;;;;;5095991;28;20047;-74
2023/03/13 10:28:12;;;;;;;20.83;5.20;;;12.60;99.90;;;;;;5095836;28;20286;-74
2023/03/13 10:30:53;;;;;;;20.43;4.33;;;12.60;99.90;;;;;;5096169;28;20055;-75
2023/03/13 10:33:27;;;;;;;22.73;5.97;;;12.60;99.90;;;;;;5095155;28;20286;-75
2023/03/13 10:36:04;;;;;;;19.03;4.63;;;12.70;99.90;;;;;;5095070;28;20286;-75
2023/03/13 10:38:45;;;;;;;19.80;4.40;;;12.70;99.90;;;;;;5095681;28;20282;-74
2023/03/13 10:41:26;;;;;;;22.20;5.40;;;12.80;99.90;;;;;;5095722;28;20270;-75
2023/03/13 10:43:55;;;;;;;20.20;4.87;;;12.80;99.90;;;;;;5096392;28;20305;-75
2023/03/13 10:46:28;;;;;;;27.17;6.30;;;12.90;99.90;;;;;;5095584;28;20278;-75
2023/03/13 10:48:55;;;;;;;22.60;4.57;;;12.90;99.90;;;;;;5096368;28;20284;-74
2023/03/13 10:51:23;;;;;;;22.63;5.63;;;12.90;99.90;;;;;;5094493;28;20297;-75
2023/03/13 10:53:50;;;;;;;16.93;4.27;;;12.90;99.90;;;;;;5095224;28;20606;-75
2023/03/13 10:56:26;;;;;;;21.83;4.33;;;13.00;99.90;;;;;;5095002;28;20309;-75
2023/03/13 10:58:52;;;;;;;18.73;3.73;;;13.00;99.90;;;;;;5095832;28;20681;-75
2023/03/13 11:01:21;;;;;;;21.77;4.50;;;13.00;99.90;;;;;;5095262;28;20278;-75
2023/03/13 11:03:49;;;;;;;19.30;3.97;;;13.10;99.90;;;;;;5094048;28;20302;-75
2023/03/13 11:06:26;;;;;;;24.67;5.13;;;13.20;99.90;;;;;;5094176;28;20290;-75
2023/03/13 11:09:13;;;;;;;18.33;4.30;;;13.20;99.90;;;;;;5095220;28;20270;-75
2023/03/13 11:11:49;;;;;;;15.67;3.87;;;13.20;99.90;;;;;;5095914;28;20289;-75
2023/03/13 11:14:21;;;;;;;12.83;3.43;;;13.30;99.90;;;;;;5094972;28;20766;-74
2023/03/13 11:16:59;;;;;;;18.63;4.73;;;13.30;99.90;;;;;;5094356;28;20353;-75
2023/03/13 11:19:43;;;;;;;18.03;4.10;;;13.30;99.90;;;;;;5095729;28;20313;-75
2023/03/13 11:22:29;;;;;;;18.87;3.83;;;13.40;99.90;;;;;;5094817;28;20320;-75
2023/03/13 11:25:49;;;;;;;14.67;4.00;;;13.40;99.90;;;;;;5094856;28;20274;-75
2023/03/13 11:28:15;;;;;;;13.93;4.53;;;13.40;99.90;;;;;;5012395;28;20384;-75
2023/03/13 11:31:18;;;;;;;13.57;4.00;;;13.50;99.90;;;;;;5077946;28;20378;-75
2023/03/13 11:33:51;;;;;;;14.27;3.23;;;13.60;99.90;;;;;;5094673;28;20048;-75
2023/03/13 11:36:28;;;;;;;16.07;3.93;;;13.70;99.90;;;;;;5095496;28;20707;-76
2023/03/13 11:39:31;;;;;;;16.13;4.10;;;13.70;99.90;;;;;;5095333;28;20358;-75
2023/03/13 11:42:17;;;;;;;19.20;4.07;;;13.80;99.90;;;;;;5094429;28;20348;-76
2023/03/13 11:44:48;;;;;;;11.73;3.47;;;13.80;99.90;;;;;;5095094;28;20331;-76
2023/03/13 11:47:35;;;;;;;21.13;3.90;;;13.80;99.90;;;;;;5094392;28;20281;-76
2023/03/13 11:50:29;;;;;;;16.57;3.83;;;13.80;99.90;;;;;;5095130;28;20286;-76
2023/03/13 11:53:04;;;;;;;18.87;4.73;;;13.80;99.90;;;;;;5094944;28;20280;-76
2023/03/13 11:55:33;;;;;;;23.73;4.45;;;13.80;99.90;;;;;;5094488;28;20282;-75
2023/03/13 11:58:20;;;;;;;17.70;4.80;;;13.70;99.90;;;;;;5093019;28;20044;-76
2023/03/13 12:01:10;;;;;;;20.33;4.33;;;13.70;99.90;;;;;;5093121;28;20751;-76
2023/03/13 12:03:41;;;;;;;18.67;3.73;;;13.70;99.90;;;;;;5094060;28;20298;-76
2023/03/13 12:06:22;;;;;;;18.53;4.30;;;13.70;99.90;;;;;;5094713;28;20361;-76
2023/03/13 12:08:56;;;;;;;18.77;4.53;;;13.60;99.90;;;;;;5094633;28;20336;-76
2023/03/13 12:11:26;;;;;;;21.42;4.47;;;13.60;99.90;;;;;;5094119;28;20289;-76
2023/03/13 12:13:55;;;;;;;23.83;4.37;;;13.60;99.90;;;;;;5092702;28;20095;-76
2023/03/13 12:16:26;;;;;;;23.77;5.17;;;13.70;99.90;;;;;;5093322;28;20297;-76
2023/03/13 12:18:53;;;;;;;19.93;5.23;;;13.70;99.90;;;;;;5092825;28;20278;-76
2023/03/13 12:21:19;;;;;;;19.07;4.70;;;13.70;99.90;;;;;;5094382;28;20285;-76
2023/03/13 12:24:27;;;;;;;26.73;6.30;;;13.70;99.90;;;;;;5093741;28;20294;-76
2023/03/13 12:26:53;;;;;;;18.77;3.97;;;13.80;99.90;;;;;;5094040;28;20055;-76
2023/03/13 12:29:58;;;;;;;21.77;5.23;;;13.80;99.90;;;;;;5093689;28;20282;-76
2023/03/13 12:32:53;;;;;;;21.37;4.57;;;13.80;99.90;;;;;;5094228;28;20278;-76
2023/03/13 12:35:32;;;;;;;19.33;4.40;;;13.90;99.90;;;;;;5093716;28;20280;-76
2023/03/13 12:38:12;;;;;;;20.90;4.50;;;13.90;99.90;;;;;;5093568;28;20293;-76
2023/03/13 12:41:00;;;;;;;23.57;4.20;;;13.90;99.90;;;;;;5093579;28;20282;-76
2023/03/13 12:43:35;;;;;;;19.93;5.63;;;13.90;99.90;;;;;;5093586;28;20384;-77
2023/03/13 12:46:19;;;;;;;23.57;5.63;;;13.90;99.90;;;;;;5093565;28;20285;-77
2023/03/13 12:49:00;;;;;;;22.40;4.60;;;13.90;99.90;;;;;;5093867;28;20282;-76
2023/03/13 12:51:38;;;;;;;20.53;4.47;;;13.80;99.90;;;;;;5093772;28;20327;-76
2023/03/13 12:54:31;;;;;;;24.80;5.17;;;13.90;99.90;;;;;;5092240;28;20066;-77